Terminal Aerodrome Forecast
Issued by NWS St Louis, MO

Home | Current Version | Previous Version | Text Only | Print | Product List | Glossary On
Versions: 1 2 3 4 5 6 7 8 9 10 11 12 13 14 15
350
FTUS43 KLSX 261408 AAB
TAFCOU
TAF AMD
KCOU 261408Z 2614/2712 30010KT 6SM BR OVC004
     FM261600 30008KT 5SM SHRA SCT005 OVC010
      TEMPO 2616/2618 2SM TSRA OVC008CB
     FM261800 34010G20KT 4SM SHRA OVC008
     FM270600 30010G16KT P6SM OVC015
     FM271000 28009KT P6SM BKN060=

USA.gov is the U.S. government's official web portal to all federal, state and local government web resources and services.